POINT ROBINSON COAST GUARD LIGHT WA US NWS current weather conditions

sailwx.info

Wind from 325 at 4 knots gusting 6

Last reported at 2020-Aug-04 12:10 UTC.
Time now 2020-Aug-04 13:59 UTC

Location: N 47°23' W 122°22'.
View on Google Maps.

See reports from other nearby stations

  
Tides and Currents Weather Stations Pressure Air Temp Water Temp Dewpoint Dewpoint Depression Visibility Wind Speed Wind Dir Waves Ship Positions
date/time (UTC)wind fromknots sea level pressurealtimeterstation pressurevisibilityair tempwater tempwave heightnotes
2020-Aug-04 12:10 325 4 gusting 6
2020-Aug-04 11:10 319 6 gusting 8
2020-Aug-04 10:10 328 5 gusting 8
2020-Aug-04 09:10 319 6 gusting 8
2020-Aug-04 08:10 326 7 gusting 9
2020-Aug-04 07:10 321 11 gusting 13
2020-Aug-04 06:10 326 10 gusting 12
2020-Aug-04 05:10 322 10 gusting 14
2020-Aug-04 04:10 321 9 gusting 12
2020-Aug-04 03:10 320 10 gusting 14
2020-Aug-04 02:10 317 8 gusting 13
2020-Aug-04 01:10 311 7 gusting 15
2020-Aug-04 00:10 320 8 gusting 9
2020-Aug-03 23:10 098 1 gusting 2
2020-Aug-03 22:10 093 3 gusting 3
2020-Aug-03 21:10 089 4 gusting 4
2020-Aug-03 20:10 159 3 gusting 4
2020-Aug-03 19:10 167 4 gusting 4
2020-Aug-03 18:10 171 3 gusting 4
2020-Aug-03 17:10 172 3 gusting 4
2020-Aug-03 16:10 191 3 gusting 4
2020-Aug-03 15:10
2020-Aug-03 14:10 178 1 gusting 2
2020-Aug-03 13:10 193 1 gusting 2
2020-Aug-03 12:10 201 0 gusting 2
2020-Aug-03 11:10 195 2 gusting 3
2020-Aug-03 10:10 201 2 gusting 3
2020-Aug-03 09:10 188 2 gusting 2
2020-Aug-03 08:10 209 3 gusting 5
2020-Aug-03 07:10 188 1 gusting 2
2020-Aug-03 06:10 329 6 gusting 6
2020-Aug-03 05:10 330 8 gusting 9
2020-Aug-03 04:10 322 7 gusting 9
2020-Aug-03 03:10 331 7 gusting 9
2020-Aug-03 02:10 327 7 gusting 9
2020-Aug-03 01:10 320 8 gusting 11
2020-Aug-03 00:10 329 5 gusting 7
2020-Aug-02 23:10 138 2 gusting 3
2020-Aug-02 22:10 167 2 gusting 4
2020-Aug-02 21:10 115 2 gusting 4
2020-Aug-02 20:10 194 6 gusting 8
2020-Aug-02 19:10 195 7 gusting 10
2020-Aug-02 18:10 194 6 gusting 11
2020-Aug-02 17:10 187 5 gusting 8
2020-Aug-02 16:10 200 6 gusting 8
2020-Aug-02 15:10 198 4 gusting 7
2020-Aug-02 14:10 189 3 gusting 3
2020-Aug-02 13:10